createdAt,value
2023-09-22T00:00:02.412Z,20.2
2023-09-22T00:01:01.296Z,20.2
2023-09-22T00:02:02.138Z,20.3
2023-09-22T00:03:02.142Z,20.2
2023-09-22T00:04:02.028Z,20
2023-09-22T00:05:02.178Z,20.1
2023-09-22T00:06:03.821Z,20
2023-09-22T00:07:01.469Z,19.9
2023-09-22T00:08:01.534Z,20
2023-09-22T00:09:01.419Z,19.8
2023-09-22T00:10:01.335Z,19.9
2023-09-22T00:11:02.501Z,19.9
2023-09-22T00:12:02.257Z,19.8
2023-09-22T00:13:02.464Z,19.6
2023-09-22T00:14:02.227Z,19.9
2023-09-22T00:15:02.241Z,19.9
2023-09-22T00:16:02.172Z,19.7
2023-09-22T00:17:01.341Z,19.6
2023-09-22T00:18:01.528Z,19.6
2023-09-22T00:19:02.512Z,19.7
2023-09-22T00:20:02.246Z,19.7
2023-09-22T00:21:02.656Z,19.8
2023-09-22T00:22:01.565Z,19.9
2023-09-22T00:23:02.726Z,19.7
2023-09-22T00:24:01.386Z,19.7
2023-09-22T00:25:01.468Z,19.5
2023-09-22T00:26:01.309Z,19.7
2023-09-22T00:27:02.469Z,19.7
2023-09-22T00:28:02.433Z,19.7
2023-09-22T00:29:01.587Z,19.7
2023-09-22T00:30:01.410Z,19.6
2023-09-22T00:31:01.547Z,19.5
2023-09-22T00:32:01.707Z,19.5
2023-09-22T00:33:01.904Z,19.8
2023-09-22T00:34:02.271Z,19.9
2023-09-22T00:35:02.283Z,19.6
2023-09-22T00:36:02.151Z,19.6
2023-09-22T00:37:02.201Z,19.7
2023-09-22T00:38:02.063Z,19.7
2023-09-22T00:39:02.528Z,19.8
2023-09-22T00:40:02.296Z,19.9
2023-09-22T00:41:02.215Z,20
2023-09-22T00:42:02.316Z,19.9
2023-09-22T00:43:02.177Z,20
2023-09-22T00:44:02.308Z,20
2023-09-22T00:45:02.137Z,20
2023-09-22T00:46:02.240Z,20
2023-09-22T00:47:02.251Z,20.1
2023-09-22T00:48:02.463Z,20.4
2023-09-22T00:49:02.257Z,20.3
2023-09-22T00:50:02.337Z,20.2
2023-09-22T00:51:02.292Z,20
2023-09-22T00:52:02.399Z,19.9
2023-09-22T00:53:02.222Z,19.8
2023-09-22T00:54:02.354Z,19.8
2023-09-22T00:55:02.108Z,20
2023-09-22T00:56:02.229Z,19.9
2023-09-22T00:57:02.056Z,19.8
2023-09-22T00:58:02.224Z,19.9
2023-09-22T00:59:01.981Z,19.9
2023-09-22T01:00:03.826Z,19.7
2023-09-22T01:01:01.553Z,20
2023-09-22T01:02:01.941Z,20
2023-09-22T01:03:02.118Z,19.8
2023-09-22T01:04:02.028Z,19.9
2023-09-22T01:05:01.355Z,20
2023-09-22T01:06:01.415Z,20.1
2023-09-22T01:07:01.450Z,20
2023-09-22T01:08:01.392Z,20.1
2023-09-22T01:09:01.340Z,19.9
2023-09-22T01:10:01.518Z,19.8
2023-09-22T01:11:01.350Z,20.1
2023-09-22T01:12:01.455Z,19.8
2023-09-22T01:13:02.477Z,19.7
2023-09-22T01:14:02.278Z,19.8
2023-09-22T01:15:02.510Z,19.8
2023-09-22T01:16:02.271Z,19.9
2023-09-22T01:17:01.455Z,20
2023-09-22T01:18:01.665Z,20.1
2023-09-22T01:19:01.666Z,20.7
2023-09-22T01:20:01.767Z,20.8
2023-09-22T01:21:01.748Z,20.3
2023-09-22T01:22:01.744Z,20.8
2023-09-22T01:23:01.707Z,20.5
2023-09-22T01:24:01.814Z,20.7
2023-09-22T01:25:01.693Z,20.8
2023-09-22T01:26:01.801Z,21.1
2023-09-22T01:27:01.663Z,21.1
2023-09-22T01:28:01.742Z,21.2
2023-09-22T01:29:01.602Z,21.1
2023-09-22T01:30:01.725Z,21.1
2023-09-22T01:31:01.504Z,20.7
2023-09-22T01:32:01.691Z,20.6
2023-09-22T01:33:01.817Z,20.4
2023-09-22T01:34:01.759Z,20.5
2023-09-22T01:35:01.689Z,20.6
2023-09-22T01:36:01.815Z,21
2023-09-22T01:37:01.932Z,21.1
2023-09-22T01:38:01.912Z,20.5
2023-09-22T01:39:02.166Z,20.6
2023-09-22T01:40:01.992Z,20.4
2023-09-22T01:41:01.982Z,20.5
2023-09-22T01:42:02.021Z,20.1
2023-09-22T01:43:01.921Z,20
2023-09-22T01:44:01.928Z,19.9
2023-09-22T01:45:02.340Z,19.8
2023-09-22T01:46:02.067Z,19.9
2023-09-22T01:47:01.350Z,19.8
2023-09-22T01:48:01.416Z,19.7
2023-09-22T01:49:02.544Z,19.8
2023-09-22T01:50:01.405Z,19.7
2023-09-22T01:51:01.419Z,19.6
2023-09-22T01:52:01.479Z,19.6
2023-09-22T01:53:02.531Z,19.5
2023-09-22T01:54:02.255Z,19.7
2023-09-22T01:55:02.353Z,19.8
2023-09-22T01:56:02.202Z,19.9
2023-09-22T01:57:02.359Z,19.8
2023-09-22T01:58:02.174Z,19.9
2023-09-22T01:59:02.221Z,19.8
2023-09-22T02:00:02.113Z,19.8
2023-09-22T02:01:02.175Z,19.6
2023-09-22T02:02:01.981Z,19.8
2023-09-22T02:03:02.231Z,19.8
2023-09-22T02:04:02.487Z,19.7
2023-09-22T02:05:01.940Z,19.6
2023-09-22T02:06:02.080Z,19.5
2023-09-22T02:07:02.021Z,19.4
2023-09-22T02:08:01.931Z,19.6
2023-09-22T02:09:02.330Z,19.6
2023-09-22T02:10:02.020Z,19.8
2023-09-22T02:11:01.988Z,19.8
2023-09-22T02:12:01.972Z,19.9
2023-09-22T02:13:01.900Z,20
2023-09-22T02:14:01.843Z,20.2
2023-09-22T02:15:02.133Z,20.6
2023-09-22T02:16:02.214Z,20.3
2023-09-22T02:17:01.364Z,20.3
2023-09-22T02:18:01.505Z,20.3
2023-09-22T02:19:01.332Z,20.3
2023-09-22T02:20:01.410Z,20.2
2023-09-22T02:21:02.336Z,20
2023-09-22T02:22:02.235Z,20
2023-09-22T02:23:02.301Z,19.7
2023-09-22T02:24:02.111Z,19.8
2023-09-22T02:25:02.184Z,19.9
2023-09-22T02:26:02.023Z,19.8
2023-09-22T02:27:01.997Z,20
2023-09-22T02:28:02.047Z,19.9
2023-09-22T02:29:01.875Z,19.8
2023-09-22T02:30:01.824Z,19.8
2023-09-22T02:31:01.944Z,19.6
2023-09-22T02:32:01.973Z,19.5
2023-09-22T02:33:01.832Z,19.8
2023-09-22T02:34:01.966Z,19.8
2023-09-22T02:35:01.732Z,19.6
2023-09-22T02:36:01.801Z,19.5
2023-09-22T02:37:01.722Z,19.6
2023-09-22T02:38:01.767Z,19.6
2023-09-22T02:39:01.870Z,19.7
2023-09-22T02:40:01.709Z,19.6
2023-09-22T02:41:01.693Z,19.7
2023-09-22T02:42:01.848Z,19.4
2023-09-22T02:43:01.596Z,19.6
2023-09-22T02:44:01.671Z,19.4
2023-09-22T02:45:01.495Z,19.4
2023-09-22T02:46:01.574Z,19.5
2023-09-22T02:47:01.775Z,19.6
2023-09-22T02:48:02.228Z,19.4
2023-09-22T02:49:02.351Z,19.6
2023-09-22T02:50:02.222Z,19.6
2023-09-22T02:51:02.247Z,19.6
2023-09-22T02:52:02.194Z,19.4
2023-09-22T02:53:02.340Z,19.7
2023-09-22T02:54:02.074Z,19.6
2023-09-22T02:55:02.264Z,19.5
2023-09-22T02:56:02.012Z,19.5
2023-09-22T02:57:01.924Z,19.7
2023-09-22T02:58:02.017Z,19.6
2023-09-22T02:59:02.289Z,19.7
2023-09-22T03:00:02.051Z,19.6
2023-09-22T03:01:02.490Z,19.6
2023-09-22T03:02:02.204Z,19.6
2023-09-22T03:03:02.489Z,19.5
2023-09-22T03:04:01.992Z,19.4
2023-09-22T03:05:01.784Z,19.4
2023-09-22T03:06:01.736Z,19.4
2023-09-22T03:07:01.890Z,19.3
2023-09-22T03:08:01.706Z,19.2
2023-09-22T03:09:01.764Z,19.4
2023-09-22T03:10:01.656Z,19.4
2023-09-22T03:11:01.602Z,19.3
2023-09-22T03:12:01.619Z,19.3
2023-09-22T03:13:01.506Z,19.2
2023-09-22T03:14:01.476Z,19.3
2023-09-22T03:15:01.328Z,19.3
2023-09-22T03:16:02.566Z,19.2
2023-09-22T03:17:01.453Z,19.1
2023-09-22T03:18:01.612Z,19.2
2023-09-22T03:19:01.441Z,19.2
2023-09-22T03:20:01.509Z,19.2
2023-09-22T03:21:01.307Z,19.3
2023-09-22T03:22:02.502Z,19.3
2023-09-22T03:23:01.337Z,19.2
2023-09-22T03:24:01.375Z,19.1
2023-09-22T03:25:04.105Z,19.1
2023-09-22T03:26:02.239Z,19.2
2023-09-22T03:27:02.378Z,19.2
2023-09-22T03:28:02.141Z,19.1
2023-09-22T03:29:02.127Z,19.3
2023-09-22T03:30:02.078Z,19.2
2023-09-22T03:31:02.291Z,19.2
2023-09-22T03:32:02.136Z,19.2
2023-09-22T03:33:02.223Z,19.3
2023-09-22T03:34:02.167Z,19.4
2023-09-22T03:35:02.049Z,19.3
2023-09-22T03:36:02.125Z,19.4
2023-09-22T03:37:02.028Z,19.4
2023-09-22T03:38:02.040Z,19.2
2023-09-22T03:39:02.198Z,19.3
2023-09-22T03:40:02.029Z,19.3
2023-09-22T03:41:01.973Z,19.4
2023-09-22T03:42:01.813Z,19.6
2023-09-22T03:43:01.795Z,19.6
2023-09-22T03:44:01.742Z,19.7
2023-09-22T03:45:01.800Z,19.6
2023-09-22T03:46:01.638Z,19.4
2023-09-22T03:47:01.704Z,19.4
2023-09-22T03:48:01.658Z,19.4
2023-09-22T03:49:01.662Z,19.5
2023-09-22T03:50:01.696Z,19.4
2023-09-22T03:51:01.527Z,19.4
2023-09-22T03:52:01.597Z,19.3
2023-09-22T03:53:01.482Z,19.7
2023-09-22T03:54:01.381Z,19.4
2023-09-22T03:55:01.301Z,19.5
2023-09-22T03:56:02.255Z,19.5
2023-09-22T03:57:02.243Z,19.5
2023-09-22T03:58:02.252Z,19.5
2023-09-22T03:59:02.197Z,19.6
2023-09-22T04:00:02.751Z,19.6
2023-09-22T04:01:01.893Z,19.9
2023-09-22T04:02:01.976Z,19.8
2023-09-22T04:03:02.036Z,19.6
2023-09-22T04:04:02.192Z,19.5
2023-09-22T04:05:02.080Z,19.6
2023-09-22T04:06:02.173Z,19.6
2023-09-22T04:07:02.040Z,19.6
2023-09-22T04:08:01.963Z,19.6
2023-09-22T04:09:01.915Z,19.5
2023-09-22T04:10:01.947Z,19.5
2023-09-22T04:11:01.809Z,19.6
2023-09-22T04:12:01.755Z,19.3
2023-09-22T04:13:01.845Z,19.3
2023-09-22T04:14:01.657Z,19.3
2023-09-22T04:15:01.562Z,19.4
2023-09-22T04:16:02.074Z,19.1
2023-09-22T04:17:01.785Z,19.1
2023-09-22T04:18:02.027Z,19.2
2023-09-22T04:19:02.236Z,19.2
2023-09-22T04:20:02.097Z,19.1
2023-09-22T04:21:02.118Z,19
2023-09-22T04:22:02.011Z,19.2
2023-09-22T04:23:02.107Z,19
2023-09-22T04:24:01.891Z,19.1
2023-09-22T04:25:01.881Z,19.4
2023-09-22T04:26:01.912Z,19.2
2023-09-22T04:27:01.845Z,19.4
2023-09-22T04:28:01.795Z,19.6
2023-09-22T04:29:01.895Z,19.4
2023-09-22T04:30:01.682Z,19.5
2023-09-22T04:31:01.855Z,19.8
2023-09-22T04:32:01.972Z,19.6
2023-09-22T04:33:01.915Z,19.7
2023-09-22T04:34:01.963Z,19.6
2023-09-22T04:35:01.729Z,19.5
2023-09-22T04:36:01.811Z,19.5
2023-09-22T04:37:01.725Z,19.5
2023-09-22T04:38:01.732Z,19.6
2023-09-22T04:39:01.834Z,19.7
2023-09-22T04:40:01.607Z,19.9
2023-09-22T04:41:01.535Z,19.9
2023-09-22T04:42:01.448Z,19.6
2023-09-22T04:43:01.535Z,19.4
2023-09-22T04:44:01.440Z,19.4
2023-09-22T04:45:01.370Z,19.9
2023-09-22T04:46:02.521Z,20.2
2023-09-22T04:47:01.513Z,19.8
2023-09-22T04:48:01.533Z,20.1
2023-09-22T04:49:01.328Z,19.8
2023-09-22T04:50:02.430Z,20
2023-09-22T04:51:02.234Z,19.9
2023-09-22T04:52:02.461Z,20
2023-09-22T04:53:02.282Z,19.8
2023-09-22T04:54:02.898Z,19.7
2023-09-22T04:55:01.679Z,19.4
2023-09-22T04:56:01.929Z,19.5
2023-09-22T04:57:01.784Z,19.6
2023-09-22T04:58:01.756Z,19.5
2023-09-22T04:59:01.817Z,19.3
2023-09-22T05:00:02.855Z,19.3
2023-09-22T05:01:01.673Z,19.4
2023-09-22T05:02:01.894Z,19.2
2023-09-22T05:03:02.186Z,19.4
2023-09-22T05:04:01.652Z,19.3
2023-09-22T05:05:01.800Z,19.4
2023-09-22T05:06:01.990Z,19.3
2023-09-22T05:07:01.775Z,19.7
2023-09-22T05:08:01.685Z,19.6
2023-09-22T05:09:01.712Z,19.5
2023-09-22T05:10:01.612Z,19.3
2023-09-22T05:11:02.267Z,19.1
2023-09-22T05:12:02.308Z,19
2023-09-22T05:13:02.250Z,19
2023-09-22T05:14:02.103Z,19
2023-09-22T05:15:02.244Z,18.9
2023-09-22T05:16:02.130Z,18.8
2023-09-22T05:17:01.472Z,19
2023-09-22T05:18:01.543Z,19
2023-09-22T05:19:01.434Z,19
2023-09-22T05:20:01.458Z,19
2023-09-22T05:21:01.289Z,19
2023-09-22T05:22:02.478Z,18.9
2023-09-22T05:23:02.424Z,19
2023-09-22T05:24:02.234Z,19.1
2023-09-22T05:25:02.176Z,19.1
2023-09-22T05:26:02.374Z,19.1
2023-09-22T05:27:02.142Z,19
2023-09-22T05:28:02.248Z,19.2
2023-09-22T05:29:02.150Z,19.2
2023-09-22T05:30:02.454Z,19.3
2023-09-22T05:31:02.255Z,19.3
2023-09-22T05:32:01.561Z,19.3
2023-09-22T05:33:01.648Z,19.3
2023-09-22T05:34:01.552Z,19.3
2023-09-22T05:35:01.712Z,19.3
2023-09-22T05:36:01.387Z,19.4
2023-09-22T05:37:01.565Z,19.4
2023-09-22T05:38:01.384Z,19.5
2023-09-22T05:39:01.448Z,19.5
2023-09-22T05:40:01.291Z,19.5
2023-09-22T05:41:02.344Z,19.5
2023-09-22T05:42:01.343Z,19.5
2023-09-22T05:43:01.420Z,19.7
2023-09-22T05:44:02.358Z,19.6
2023-09-22T05:45:02.246Z,19.6
2023-09-22T05:46:02.394Z,19.6
2023-09-22T05:47:01.369Z,19.7
2023-09-22T05:48:01.492Z,19.9
2023-09-22T05:49:01.489Z,20
2023-09-22T05:50:01.521Z,19.8
2023-09-22T05:51:01.658Z,19.9
2023-09-22T05:52:01.963Z,20
2023-09-22T05:53:01.896Z,19.8
2023-09-22T05:54:01.729Z,19.8
2023-09-22T05:55:01.959Z,19.9
2023-09-22T05:56:01.749Z,19.9
2023-09-22T05:57:01.853Z,20
2023-09-22T05:58:01.666Z,19.9
2023-09-22T05:59:01.813Z,20
2023-09-22T06:00:02.138Z,20.1
2023-09-22T06:01:02.005Z,20.1
2023-09-22T06:02:01.673Z,20.2
2023-09-22T06:03:01.913Z,20.1
2023-09-22T06:04:01.880Z,20.2
2023-09-22T06:05:02.026Z,20.1
2023-09-22T06:06:02.163Z,20.2
2023-09-22T06:07:01.918Z,20.4
2023-09-22T06:08:01.950Z,20.5
2023-09-22T06:09:01.788Z,20.5
2023-09-22T06:10:01.908Z,20.5
2023-09-22T06:11:01.725Z,20.5
2023-09-22T06:12:01.821Z,20.6
2023-09-22T06:13:01.998Z,20.6
2023-09-22T06:14:02.009Z,20.6
2023-09-22T06:15:01.780Z,20.7
2023-09-22T06:16:02.334Z,20.6
2023-09-22T06:17:01.977Z,20.6
2023-09-22T06:18:01.917Z,20.7
2023-09-22T06:19:02.000Z,20.7
2023-09-22T06:20:01.984Z,20.7
2023-09-22T06:21:01.964Z,20.9
2023-09-22T06:22:02.038Z,21
2023-09-22T06:23:01.922Z,21
2023-09-22T06:24:01.881Z,21.2
2023-09-22T06:25:02.016Z,21.2
2023-09-22T06:26:01.863Z,21.3
2023-09-22T06:27:01.795Z,21.3
2023-09-22T06:28:01.812Z,21.3
2023-09-22T06:29:01.686Z,21.4
2023-09-22T06:30:01.780Z,21.4
2023-09-22T06:31:01.891Z,21.2
2023-09-22T06:32:01.931Z,21.3
2023-09-22T06:33:02.016Z,21.2
2023-09-22T06:34:02.187Z,21.2
2023-09-22T06:35:02.040Z,21.2
2023-09-22T06:36:01.992Z,21.3
2023-09-22T06:37:02.135Z,21.4
2023-09-22T06:38:01.993Z,21.4
2023-09-22T06:39:01.944Z,21.2
2023-09-22T06:40:02.021Z,21.4
2023-09-22T06:41:03.403Z,21.5
2023-09-22T06:42:02.133Z,21.3
2023-09-22T06:43:09.580Z,21.3
2023-09-22T06:44:01.526Z,21.4
2023-09-22T06:45:01.609Z,21.5
2023-09-22T06:46:01.409Z,21.5
2023-09-22T06:47:01.906Z,21.6
2023-09-22T06:48:01.963Z,21.6
2023-09-22T06:49:01.931Z,21.7
2023-09-22T06:50:01.843Z,21.6
2023-09-22T06:51:02.073Z,21.6
2023-09-22T06:52:02.122Z,21.5
2023-09-22T06:53:02.032Z,21.6
2023-09-22T06:54:02.081Z,21.5
2023-09-22T06:55:01.996Z,21.4
2023-09-22T06:56:02.071Z,21.4
2023-09-22T06:57:02.126Z,21.4
2023-09-22T06:58:01.978Z,21.4
2023-09-22T06:59:02.098Z,21.5
2023-09-22T07:00:02.224Z,21.6
2023-09-22T07:01:02.153Z,21.7
2023-09-22T07:02:01.603Z,21.9
2023-09-22T07:03:01.687Z,21.9
2023-09-22T07:04:01.877Z,22
2023-09-22T07:05:01.900Z,21.9
2023-09-22T07:06:02.068Z,22.1
2023-09-22T07:07:01.862Z,22.1
2023-09-22T07:08:01.850Z,22.2
2023-09-22T07:09:01.896Z,22.4
2023-09-22T07:10:01.738Z,22.4
2023-09-22T07:11:01.901Z,22.3
2023-09-22T07:12:02.291Z,22.1
2023-09-22T07:13:02.014Z,22
2023-09-22T07:14:01.970Z,22.1
2023-09-22T07:15:01.990Z,22.4
2023-09-22T07:16:01.888Z,22.5
2023-09-22T07:17:01.955Z,22.5
2023-09-22T07:18:02.143Z,22.5
2023-09-22T07:19:02.123Z,22.5
2023-09-22T07:20:02.179Z,22.7
2023-09-22T07:21:02.375Z,22.6
2023-09-22T07:22:02.188Z,22.7
2023-09-22T07:23:02.009Z,22.8
2023-09-22T07:24:02.118Z,22.6
2023-09-22T07:25:01.953Z,22.9
2023-09-22T07:26:02.048Z,23.1
2023-09-22T07:27:02.693Z,23
2023-09-22T07:28:01.376Z,22.9
2023-09-22T07:29:01.451Z,22.9
2023-09-22T07:30:02.868Z,23
2023-09-22T07:31:01.606Z,23
2023-09-22T07:32:02.205Z,22.9
2023-09-22T07:33:02.248Z,23
2023-09-22T07:34:02.099Z,23.2
2023-09-22T07:35:02.126Z,23
2023-09-22T07:36:02.185Z,23
2023-09-22T07:37:15.232Z,23.1
2023-09-22T07:38:02.269Z,23.1
2023-09-22T07:39:02.676Z,23
2023-09-22T07:40:01.330Z,23.1
2023-09-22T07:41:02.441Z,23.3
2023-09-22T07:42:02.291Z,23.4
2023-09-22T07:43:02.221Z,23.8
2023-09-22T07:44:02.221Z,23.8
2023-09-22T07:45:02.180Z,23.5
2023-09-22T07:46:02.261Z,23.4
2023-09-22T07:47:01.654Z,23.5
2023-09-22T07:48:01.634Z,23.6
2023-09-22T07:49:01.544Z,23.3
2023-09-22T07:50:01.644Z,23.3
2023-09-22T07:51:01.701Z,23.2
2023-09-22T07:52:01.622Z,23
2023-09-22T07:53:01.576Z,23
2023-09-22T07:54:01.498Z,22.9
2023-09-22T07:55:01.489Z,22.9
2023-09-22T07:56:01.417Z,22.9
2023-09-22T07:57:01.343Z,22.7
2023-09-22T07:58:01.359Z,22.7
2023-09-22T07:59:12.637Z,22.8
2023-09-22T08:00:03.161Z,22.6
2023-09-22T08:01:02.218Z,22.7
2023-09-22T08:02:01.678Z,22.7
2023-09-22T08:03:01.644Z,22.7
2023-09-22T08:04:02.393Z,22.6
2023-09-22T08:05:01.327Z,22.6
2023-09-22T08:06:02.442Z,22.6
2023-09-22T08:07:02.287Z,22.5
2023-09-22T08:08:02.391Z,22.5
2023-09-22T08:09:02.208Z,22.5
2023-09-22T08:10:02.329Z,22.5
2023-09-22T08:11:01.288Z,22.5
2023-09-22T08:12:02.374Z,22.5
2023-09-22T08:13:02.261Z,22.3
2023-09-22T08:14:02.280Z,22.3
2023-09-22T08:15:02.257Z,22.3
2023-09-22T08:16:02.279Z,22.4
2023-09-22T08:17:02.245Z,22.4
2023-09-22T08:18:02.358Z,22.3
2023-09-22T08:19:02.245Z,22.3
2023-09-22T08:20:01.804Z,22.2
2023-09-22T08:21:01.641Z,22.3
2023-09-22T08:22:01.463Z,22.4
2023-09-22T08:23:01.365Z,22.4
2023-09-22T08:24:01.389Z,22.3
2023-09-22T08:25:02.473Z,22.2
2023-09-22T08:26:01.355Z,22.4
2023-09-22T08:27:01.458Z,22.3
2023-09-22T08:28:02.455Z,22.3
2023-09-22T08:29:02.265Z,22.3
2023-09-22T08:30:02.239Z,22.3
2023-09-22T08:31:02.207Z,22.2
2023-09-22T08:32:01.274Z,22.3
2023-09-22T08:33:02.368Z,22.2
2023-09-22T08:34:02.248Z,22.3
2023-09-22T08:35:02.427Z,22.3
2023-09-22T08:36:04.440Z,22.3
2023-09-22T08:37:01.563Z,22.2
2023-09-22T08:38:01.617Z,22.3
2023-09-22T08:39:01.510Z,22.3
2023-09-22T08:40:01.366Z,22.3
2023-09-22T08:41:02.338Z,22.2
2023-09-22T08:42:02.292Z,22.3
2023-09-22T08:43:02.324Z,22.4
2023-09-22T08:44:02.419Z,22.7
2023-09-22T08:45:01.343Z,23.2
2023-09-22T08:46:02.397Z,23.4
2023-09-22T08:47:02.092Z,23.5
2023-09-22T08:48:02.236Z,23.4
2023-09-22T08:49:02.281Z,23.3
2023-09-22T08:50:02.215Z,23.3
2023-09-22T08:51:02.161Z,23.2
2023-09-22T08:52:02.123Z,23.4
2023-09-22T08:53:02.135Z,23.6
2023-09-22T08:54:02.058Z,23.7
2023-09-22T08:55:02.127Z,24.1
2023-09-22T08:56:02.052Z,23.8
2023-09-22T08:57:01.926Z,23.9
2023-09-22T08:58:01.979Z,23.9
2023-09-22T08:59:01.874Z,23.9
2023-09-22T09:00:02.026Z,24.2
2023-09-22T09:01:02.205Z,24.1
2023-09-22T09:02:02.152Z,23.9
2023-09-22T09:03:02.091Z,23.6
2023-09-22T09:04:01.377Z,23.8
2023-09-22T09:05:01.384Z,23.8
2023-09-22T09:06:02.466Z,23.3
2023-09-22T09:07:02.263Z,23.3
2023-09-22T09:08:02.228Z,23.5
2023-09-22T09:09:02.100Z,23.6
2023-09-22T09:10:02.523Z,23.5
2023-09-22T09:11:01.531Z,23.3
2023-09-22T09:12:01.745Z,23.3
2023-09-22T09:13:01.729Z,23.3
2023-09-22T09:14:01.870Z,23.3
2023-09-22T09:15:02.326Z,23.1
2023-09-22T09:16:01.629Z,23.2
2023-09-22T09:17:02.332Z,23.2
2023-09-22T09:18:02.412Z,23.3
2023-09-22T09:19:02.298Z,23.3
2023-09-22T09:20:02.406Z,23.5
2023-09-22T09:21:02.105Z,23.1
2023-09-22T09:22:02.191Z,23.1
2023-09-22T09:23:02.026Z,23.1
2023-09-22T09:24:02.052Z,23.2
2023-09-22T09:25:02.027Z,23.3
2023-09-22T09:26:02.021Z,23.2
2023-09-22T09:27:02.147Z,23.4
2023-09-22T09:28:01.964Z,23.4
2023-09-22T09:29:01.948Z,23.3
2023-09-22T09:30:02.053Z,23.3
2023-09-22T09:31:01.799Z,23.2
2023-09-22T09:32:01.990Z,23.4
2023-09-22T09:33:02.085Z,23.3
2023-09-22T09:34:01.856Z,23.1
2023-09-22T09:35:01.798Z,23.1
2023-09-22T09:36:01.850Z,23.3
2023-09-22T09:37:01.673Z,23.4
2023-09-22T09:38:01.693Z,23.3
2023-09-22T09:39:01.536Z,23.6
2023-09-22T09:40:01.606Z,23.6
2023-09-22T09:41:01.523Z,23.8
2023-09-22T09:42:01.529Z,24
2023-09-22T09:43:01.489Z,23.9
2023-09-22T09:44:01.454Z,23.9
2023-09-22T09:45:01.277Z,23.8
2023-09-22T09:46:02.532Z,23.7
2023-09-22T09:47:01.521Z,23.9
2023-09-22T09:48:01.489Z,23.9
2023-09-22T09:49:01.448Z,24
2023-09-22T09:50:01.398Z,24.1
2023-09-22T09:51:02.421Z,24.2
2023-09-22T09:52:02.335Z,24
2023-09-22T09:53:02.218Z,23.9
2023-09-22T09:54:02.131Z,24.2
2023-09-22T09:55:02.296Z,24.2
2023-09-22T09:56:01.437Z,24
2023-09-22T09:57:01.398Z,24
2023-09-22T09:58:02.458Z,24.2
2023-09-22T09:59:03.105Z,24.6
2023-09-22T10:00:01.618Z,24.5
2023-09-22T10:01:01.806Z,24.9
2023-09-22T10:02:01.612Z,25.1
2023-09-22T10:03:02.166Z,25.1
2023-09-22T10:04:01.429Z,24.9
2023-09-22T10:05:01.615Z,24.9
2023-09-22T10:06:01.686Z,24.9
2023-09-22T10:07:01.531Z,24.9
2023-09-22T10:08:01.652Z,24.8
2023-09-22T10:09:01.455Z,25
2023-09-22T10:10:01.657Z,25.4
2023-09-22T10:11:01.648Z,25.7
2023-09-22T10:12:01.686Z,25.5
2023-09-22T10:13:02.065Z,25.5
2023-09-22T10:14:01.404Z,25.8
2023-09-22T10:15:01.389Z,25.3
2023-09-22T10:16:02.622Z,25.5
2023-09-22T10:17:01.351Z,25.5
2023-09-22T10:18:02.477Z,25.7
2023-09-22T10:19:02.242Z,25.4
2023-09-22T10:20:02.272Z,25.2
2023-09-22T10:21:02.125Z,25.3
2023-09-22T10:22:02.581Z,25.4
2023-09-22T10:23:01.323Z,26.1
2023-09-22T10:24:02.483Z,25.8
2023-09-22T10:25:02.263Z,26.2
2023-09-22T10:26:02.304Z,26.2
2023-09-22T10:27:02.171Z,26.1
2023-09-22T10:28:03.928Z,26.3
2023-09-22T10:29:01.296Z,25.7
2023-09-22T10:30:02.363Z,25.5
2023-09-22T10:31:02.349Z,25.3
2023-09-22T10:32:01.548Z,25.5
2023-09-22T10:33:01.353Z,25.2
2023-09-22T10:34:01.390Z,25.4
2023-09-22T10:35:02.717Z,25.7
2023-09-22T10:36:01.450Z,25.9
2023-09-22T10:37:01.605Z,26.1
2023-09-22T10:38:01.565Z,26.4
2023-09-22T10:39:02.097Z,26.7
2023-09-22T10:40:01.879Z,26.7
2023-09-22T10:41:04.250Z,26.9
2023-09-22T10:42:01.986Z,26.8
2023-09-22T10:43:01.928Z,26.9
2023-09-22T10:44:01.986Z,27.1
2023-09-22T10:45:01.730Z,26.9
2023-09-22T10:46:01.390Z,27
2023-09-22T10:47:01.950Z,27.1
2023-09-22T10:48:01.849Z,26.5
2023-09-22T10:49:01.978Z,26.6
2023-09-22T10:50:01.861Z,26.4
2023-09-22T10:52:01.951Z,27
2023-09-22T10:53:01.714Z,27.4
2023-09-22T10:54:01.669Z,27.4
2023-09-22T10:55:01.623Z,27.2
2023-09-22T10:56:01.550Z,27.9
2023-09-22T10:57:01.640Z,27.4
2023-09-22T10:58:01.448Z,26.6
2023-09-22T10:59:01.507Z,27
2023-09-22T11:00:02.220Z,27
2023-09-22T11:01:01.841Z,27.1
2023-09-22T11:02:02.018Z,27.1
2023-09-22T11:03:02.023Z,26.5
2023-09-22T11:04:01.952Z,26.2
2023-09-22T11:05:03.556Z,26
2023-09-22T11:06:01.956Z,26.1
2023-09-22T11:07:02.056Z,25.6
2023-09-22T11:08:01.818Z,25.7
2023-09-22T11:09:01.769Z,25.7
2023-09-22T11:10:01.674Z,25.6
2023-09-22T11:11:01.691Z,25.8
2023-09-22T11:12:01.779Z,25.9
2023-09-22T11:13:01.570Z,25.8
2023-09-22T11:14:01.497Z,25.5
2023-09-22T11:15:01.928Z,25.5
2023-09-22T11:16:02.064Z,25.7
2023-09-22T11:17:02.017Z,25.9
2023-09-22T11:18:02.145Z,25.9
2023-09-22T11:19:01.952Z,26.2
2023-09-22T11:20:02.052Z,26.5
2023-09-22T11:21:01.835Z,26.8
2023-09-22T11:22:01.757Z,27.2
2023-09-22T11:23:01.922Z,27.2
2023-09-22T11:24:01.673Z,27.3
2023-09-22T11:25:01.879Z,27.3
2023-09-22T11:26:01.641Z,27.5
2023-09-22T11:27:01.655Z,27.5
2023-09-22T11:28:01.580Z,27.3
2023-09-22T11:29:02.020Z,27.4
2023-09-22T11:30:01.833Z,27.8
2023-09-22T11:31:01.491Z,27.7
2023-09-22T11:32:01.699Z,27.6
2023-09-22T11:33:01.673Z,27.7
2023-09-22T11:34:01.795Z,27.8
2023-09-22T11:35:17.473Z,27.7
2023-09-22T11:36:01.993Z,27.4
2023-09-22T11:37:01.964Z,27.6
2023-09-22T11:38:01.886Z,27.3
2023-09-22T11:39:01.850Z,27.8
2023-09-22T11:40:02.057Z,27.7
2023-09-22T11:41:01.752Z,27.5
2023-09-22T11:42:01.771Z,27.6
2023-09-22T11:43:01.877Z,27.4
2023-09-22T11:44:01.672Z,27.6
2023-09-22T11:45:01.817Z,27.5
2023-09-22T11:46:02.341Z,27.3
2023-09-22T11:47:02.115Z,27
2023-09-22T11:48:02.352Z,27.2
2023-09-22T11:49:02.287Z,27.2
2023-09-22T11:50:02.462Z,27
2023-09-22T11:51:02.170Z,27.1
2023-09-22T11:52:02.588Z,27.1
2023-09-22T11:53:01.618Z,27.2
2023-09-22T11:54:02.039Z,27.1
2023-09-22T11:55:01.689Z,27.1
2023-09-22T11:56:01.715Z,27.6
2023-09-22T11:57:01.575Z,27.5
2023-09-22T11:58:01.565Z,27.8
2023-09-22T11:59:01.796Z,27.7
2023-09-22T12:00:03.003Z,28.3
2023-09-22T12:01:02.285Z,27.7
2023-09-22T12:02:04.221Z,27.8
2023-09-22T12:03:01.588Z,27.6
2023-09-22T12:04:01.844Z,27.3
2023-09-22T12:05:02.316Z,27.6
2023-09-22T12:06:02.288Z,27.1
2023-09-22T12:07:02.474Z,27.3
2023-09-22T12:08:01.350Z,27.2
2023-09-22T12:09:01.410Z,27.4
2023-09-22T12:10:01.260Z,27.5
2023-09-22T12:11:02.480Z,27.7
2023-09-22T12:12:02.222Z,28
2023-09-22T12:13:02.369Z,28.1
2023-09-22T12:14:02.201Z,27.4
2023-09-22T12:15:02.264Z,27.3
2023-09-22T12:16:01.837Z,27.3
2023-09-22T12:17:01.963Z,27.7
2023-09-22T12:18:01.802Z,27.1
2023-09-22T12:19:01.799Z,27.4
2023-09-22T12:20:01.783Z,27.4
2023-09-22T12:21:01.616Z,27.5
2023-09-22T12:22:01.722Z,27.3
2023-09-22T12:23:01.613Z,27.4
2023-09-22T12:24:01.962Z,27.7
2023-09-22T12:25:01.619Z,27.6
2023-09-22T12:26:01.689Z,27.6
2023-09-22T12:27:01.551Z,27.7
2023-09-22T12:28:01.577Z,27.5
2023-09-22T12:29:01.656Z,27.5
2023-09-22T12:30:01.505Z,27.6
2023-09-22T12:31:02.107Z,27.8
2023-09-22T12:32:01.354Z,27.5
2023-09-22T12:33:01.357Z,27.5
2023-09-22T12:34:01.310Z,27.4
2023-09-22T12:35:01.497Z,27.2
2023-09-22T12:36:02.620Z,27.1
2023-09-22T12:37:01.497Z,27.3
2023-09-22T12:38:01.505Z,27.1
2023-09-22T12:39:01.421Z,27
2023-09-22T12:40:01.502Z,27.1
2023-09-22T12:41:01.413Z,27.1
2023-09-22T12:42:01.437Z,27.1
2023-09-22T12:43:01.311Z,27
2023-09-22T12:44:02.435Z,26.8
2023-09-22T12:45:01.318Z,26.6
2023-09-22T12:46:02.449Z,26.8
2023-09-22T12:47:01.540Z,26.8
2023-09-22T12:48:01.420Z,27
2023-09-22T12:49:01.835Z,26.9
2023-09-22T12:50:01.503Z,26.4
2023-09-22T12:51:01.704Z,26.2
2023-09-22T12:52:01.431Z,26.3
2023-09-22T12:53:01.471Z,26.2
2023-09-22T12:54:01.346Z,26.2
2023-09-22T12:55:01.339Z,26.1
2023-09-22T12:56:02.377Z,26.3
2023-09-22T12:57:02.330Z,26.6
2023-09-22T12:58:02.287Z,26.4
2023-09-22T12:59:02.129Z,26.8
2023-09-22T13:00:02.478Z,27.1
2023-09-22T13:01:01.845Z,26.6
2023-09-22T13:02:01.958Z,26.8
2023-09-22T13:03:02.285Z,26.9
2023-09-22T13:04:01.578Z,27
2023-09-22T13:05:02.910Z,27.4
2023-09-22T13:06:01.924Z,27.5
2023-09-22T13:07:01.897Z,27.2
2023-09-22T13:08:01.960Z,27.2
2023-09-22T13:09:01.805Z,27.1
2023-09-22T13:10:01.744Z,27.3
2023-09-22T13:11:03.778Z,27.5
2023-09-22T13:12:02.361Z,27.1
2023-09-22T13:13:02.256Z,27.3
2023-09-22T13:14:02.365Z,27
2023-09-22T13:15:01.332Z,27.3
2023-09-22T13:16:02.256Z,27.3
2023-09-22T13:17:02.457Z,27.1
2023-09-22T13:18:01.521Z,27.4
2023-09-22T13:19:01.684Z,27.2
2023-09-22T13:20:02.058Z,27.3
2023-09-22T13:21:01.746Z,26.7
2023-09-22T13:22:01.953Z,26.6
2023-09-22T13:23:01.749Z,26.5
2023-09-22T13:24:02.034Z,26.3